sensor_id;sensor_type;location;lat;lon;timestamp;pressure;altitude;pressure_sealevel;temperature;humidity
59877;BME280;45749;51.140;17.184;2023-01-31T00:00:28;99464.47;;;2.96;100.00
59877;BME280;45749;51.140;17.184;2023-01-31T00:02:53;99466.25;;;2.95;100.00
59877;BME280;45749;51.140;17.184;2023-01-31T00:05:18;99471.38;;;2.97;100.00
59877;BME280;45749;51.140;17.184;2023-01-31T00:07:44;99463.56;;;2.97;100.00
59877;BME280;45749;51.140;17.184;2023-01-31T00:10:10;99475.66;;;2.98;100.00
59877;BME280;45749;51.140;17.184;2023-01-31T00:12:35;99484.25;;;3.00;100.00
59877;BME280;45749;51.140;17.184;2023-01-31T00:15:00;99466.75;;;3.02;100.00
59877;BME280;45749;51.140;17.184;2023-01-31T00:17:26;99476.34;;;3.01;99.92
59877;BME280;45749;51.140;17.184;2023-01-31T00:19:51;99480.63;;;3.02;99.79
59877;BME280;45749;51.140;17.184;2023-01-31T00:22:16;99490.97;;;3.04;99.69
59877;BME280;45749;51.140;17.184;2023-01-31T00:24:42;99496.09;;;3.05;99.43
59877;BME280;45749;51.140;17.184;2023-01-31T00:27:07;99495.25;;;3.05;99.45
59877;BME280;45749;51.140;17.184;2023-01-31T00:29:33;99498.69;;;3.05;99.05
59877;BME280;45749;51.140;17.184;2023-01-31T00:31:59;99502.25;;;3.04;99.08
59877;BME280;45749;51.140;17.184;2023-01-31T00:34:24;99503.06;;;3.05;99.14
59877;BME280;45749;51.140;17.184;2023-01-31T00:36:49;99503.00;;;3.07;99.25
59877;BME280;45749;51.140;17.184;2023-01-31T00:39:15;99503.00;;;3.07;99.01
59877;BME280;45749;51.140;17.184;2023-01-31T00:41:40;99507.38;;;3.06;98.85
59877;BME280;45749;51.140;17.184;2023-01-31T00:44:05;99498.69;;;3.05;98.87
59877;BME280;45749;51.140;17.184;2023-01-31T00:46:30;99505.69;;;3.05;98.77
59877;BME280;45749;51.140;17.184;2023-01-31T00:48:56;99510.91;;;3.05;98.53
59877;BME280;45749;51.140;17.184;2023-01-31T00:51:22;99515.28;;;3.04;98.37
59877;BME280;45749;51.140;17.184;2023-01-31T00:53:48;99501.47;;;3.02;98.11
59877;BME280;45749;51.140;17.184;2023-01-31T00:56:15;99518.13;;;3.00;97.81
59877;BME280;45749;51.140;17.184;2023-01-31T00:58:40;99525.97;;;3.00;97.68
59877;BME280;45749;51.140;17.184;2023-01-31T01:01:07;99527.69;;;2.99;97.76
59877;BME280;45749;51.140;17.184;2023-01-31T01:03:32;99520.81;;;2.98;97.89
59877;BME280;45749;51.140;17.184;2023-01-31T01:05:58;99540.81;;;2.98;98.13
59877;BME280;45749;51.140;17.184;2023-01-31T01:08:23;99526.28;;;2.94;98.00
59877;BME280;45749;51.140;17.184;2023-01-31T01:10:48;99541.16;;;2.92;98.17
59877;BME280;45749;51.140;17.184;2023-01-31T01:13:13;99542.09;;;2.91;97.96
59877;BME280;45749;51.140;17.184;2023-01-31T01:15:39;99547.28;;;2.91;98.42
59877;BME280;45749;51.140;17.184;2023-01-31T01:18:04;99549.06;;;2.90;98.57
59877;BME280;45749;51.140;17.184;2023-01-31T01:20:29;99545.63;;;2.90;98.13
59877;BME280;45749;51.140;17.184;2023-01-31T01:22:54;99553.44;;;2.90;97.96
59877;BME280;45749;51.140;17.184;2023-01-31T01:25:20;99547.34;;;2.89;97.83
59877;BME280;45749;51.140;17.184;2023-01-31T01:27:45;99541.31;;;2.89;97.37
59877;BME280;45749;51.140;17.184;2023-01-31T01:30:10;99536.94;;;2.89;97.25
59877;BME280;45749;51.140;17.184;2023-01-31T01:32:36;99534.44;;;2.88;96.95
59877;BME280;45749;51.140;17.184;2023-01-31T01:35:01;99530.16;;;2.87;96.41
59877;BME280;45749;51.140;17.184;2023-01-31T01:37:27;99554.44;;;2.87;94.35
59877;BME280;45749;51.140;17.184;2023-01-31T01:39:52;99558.56;;;2.91;94.76
59877;BME280;45749;51.140;17.184;2023-01-31T01:42:22;99571.59;;;2.91;94.02
59877;BME280;45749;51.140;17.184;2023-01-31T01:44:51;99575.03;;;2.92;94.62
59877;BME280;45749;51.140;17.184;2023-01-31T01:47:37;99580.34;;;2.90;93.77
59877;BME280;45749;51.140;17.184;2023-01-31T01:50:12;99586.53;;;2.88;93.79
59877;BME280;45749;51.140;17.184;2023-01-31T01:52:41;99583.16;;;2.86;94.38
59877;BME280;45749;51.140;17.184;2023-01-31T01:55:22;99590.25;;;2.84;94.27
59877;BME280;45749;51.140;17.184;2023-01-31T01:57:50;99592.06;;;2.81;94.58
59877;BME280;45749;51.140;17.184;2023-01-31T02:00:20;99609.47;;;2.81;93.79
59877;BME280;45749;51.140;17.184;2023-01-31T02:02:46;99604.25;;;2.81;93.73
59877;BME280;45749;51.140;17.184;2023-01-31T02:05:14;99605.09;;;2.81;93.26
59877;BME280;45749;51.140;17.184;2023-01-31T02:07:41;99605.03;;;2.83;92.80
59877;BME280;45749;51.140;17.184;2023-01-31T02:10:11;99611.00;;;2.85;92.54
59877;BME280;45749;51.140;17.184;2023-01-31T02:12:37;99617.88;;;2.86;92.42
59877;BME280;45749;51.140;17.184;2023-01-31T02:15:03;99614.44;;;2.86;92.13
59877;BME280;45749;51.140;17.184;2023-01-31T02:17:29;99617.88;;;2.86;92.36
59877;BME280;45749;51.140;17.184;2023-01-31T02:22:25;99622.34;;;2.84;91.78
59877;BME280;45749;51.140;17.184;2023-01-31T02:37:37;99652.56;;;2.71;90.98
59877;BME280;45749;51.140;17.184;2023-01-31T02:40:28;99655.31;;;2.68;91.99
59877;BME280;45749;51.140;17.184;2023-01-31T02:51:04;99685.72;;;2.50;93.73
59877;BME280;45749;51.140;17.184;2023-01-31T02:53:36;99685.03;;;2.46;94.30
59877;BME280;45749;51.140;17.184;2023-01-31T02:56:08;99688.72;;;2.42;94.42
59877;BME280;45749;51.140;17.184;2023-01-31T02:58:55;99685.31;;;2.40;94.64
59877;BME280;45749;51.140;17.184;2023-01-31T03:01:29;99695.00;;;2.38;94.82
59877;BME280;45749;51.140;17.184;2023-01-31T03:03:58;99703.78;;;2.35;94.90
59877;BME280;45749;51.140;17.184;2023-01-31T03:11:27;99724.22;;;2.26;95.64
59877;BME280;45749;51.140;17.184;2023-01-31T03:16:31;99733.38;;;2.16;95.96
59877;BME280;45749;51.140;17.184;2023-01-31T03:19:40;99737.91;;;2.12;96.17
59877;BME280;45749;51.140;17.184;2023-01-31T03:22:10;99736.41;;;2.06;96.40
59877;BME280;45749;51.140;17.184;2023-01-31T03:24:41;99751.28;;;2.04;96.55
59877;BME280;45749;51.140;17.184;2023-01-31T03:27:07;99753.00;;;2.04;96.91
59877;BME280;45749;51.140;17.184;2023-01-31T03:29:33;99748.72;;;2.03;96.81
59877;BME280;45749;51.140;17.184;2023-01-31T03:32:02;99760.91;;;2.02;97.07
59877;BME280;45749;51.140;17.184;2023-01-31T03:34:28;99759.97;;;2.03;96.91
59877;BME280;45749;51.140;17.184;2023-01-31T03:47:17;99780.81;;;1.84;96.09
59877;BME280;45749;51.140;17.184;2023-01-31T03:49:45;99772.72;;;1.72;96.61
59877;BME280;45749;51.140;17.184;2023-01-31T03:52:13;99761.88;;;1.62;97.08
59877;BME280;45749;51.140;17.184;2023-01-31T03:54:43;99776.00;;;1.56;97.32
59877;BME280;45749;51.140;17.184;2023-01-31T03:57:17;99786.53;;;1.53;96.95
59877;BME280;45749;51.140;17.184;2023-01-31T03:59:46;99780.34;;;1.56;97.09
59877;BME280;45749;51.140;17.184;2023-01-31T04:02:17;99778.47;;;1.59;96.68
59877;BME280;45749;51.140;17.184;2023-01-31T04:04:44;99790.38;;;1.65;96.60
59877;BME280;45749;51.140;17.184;2023-01-31T04:07:10;99788.50;;;1.67;96.29
59877;BME280;45749;51.140;17.184;2023-01-31T04:09:36;99796.97;;;1.72;96.21
59877;BME280;45749;51.140;17.184;2023-01-31T04:12:02;99803.84;;;1.73;96.32
59877;BME280;45749;51.140;17.184;2023-01-31T04:14:28;99809.00;;;1.75;96.19
59877;BME280;45749;51.140;17.184;2023-01-31T04:16:53;99805.47;;;1.76;95.80
59877;BME280;45749;51.140;17.184;2023-01-31T04:19:18;99808.00;;;1.77;95.67
59877;BME280;45749;51.140;17.184;2023-01-31T04:21:44;99808.78;;;1.79;95.01
59877;BME280;45749;51.140;17.184;2023-01-31T04:24:09;99807.88;;;1.80;95.03
59877;BME280;45749;51.140;17.184;2023-01-31T04:26:34;99816.47;;;1.82;95.33
59877;BME280;45749;51.140;17.184;2023-01-31T04:29:00;99813.78;;;1.84;94.35
59877;BME280;45749;51.140;17.184;2023-01-31T04:31:25;99811.97;;;1.86;93.88
59877;BME280;45749;51.140;17.184;2023-01-31T04:33:51;99818.00;;;1.86;94.38
59877;BME280;45749;51.140;17.184;2023-01-31T04:36:16;99816.25;;;1.87;94.28
59877;BME280;45749;51.140;17.184;2023-01-31T04:38:41;99819.69;;;1.87;94.10
59877;BME280;45749;51.140;17.184;2023-01-31T04:41:06;99828.28;;;1.90;93.40
59877;BME280;45749;51.140;17.184;2023-01-31T04:43:32;99828.22;;;1.91;93.68
59877;BME280;45749;51.140;17.184;2023-01-31T04:45:57;99833.34;;;1.93;93.30
59877;BME280;45749;51.140;17.184;2023-01-31T04:48:22;99842.81;;;1.94;92.16
59877;BME280;45749;51.140;17.184;2023-01-31T04:50:47;99834.13;;;1.95;92.66
59877;BME280;45749;51.140;17.184;2023-01-31T04:53:13;99844.41;;;1.98;92.42
59877;BME280;45749;51.140;17.184;2023-01-31T04:55:38;99850.38;;;2.00;91.43
59877;BME280;45749;51.140;17.184;2023-01-31T04:58:04;99846.88;;;2.01;91.43
59877;BME280;45749;51.140;17.184;2023-01-31T05:00:29;99852.84;;;2.03;91.90
59877;BME280;45749;51.140;17.184;2023-01-31T05:02:55;99848.47;;;2.03;91.33
59877;BME280;45749;51.140;17.184;2023-01-31T05:05:20;99846.69;;;2.04;91.37
59877;BME280;45749;51.140;17.184;2023-01-31T05:07:45;99850.94;;;2.06;91.19
59877;BME280;45749;51.140;17.184;2023-01-31T05:10:11;99840.53;;;2.06;91.64
59877;BME280;45749;51.140;17.184;2023-01-31T05:12:36;99845.72;;;2.06;90.61
59877;BME280;45749;51.140;17.184;2023-01-31T05:15:02;99846.50;;;2.08;90.76
59877;BME280;45749;51.140;17.184;2023-01-31T05:17:27;99851.78;;;2.07;91.02
59877;BME280;45749;51.140;17.184;2023-01-31T05:19:57;99853.47;;;2.08;90.66
59877;BME280;45749;51.140;17.184;2023-01-31T05:22:22;99854.31;;;2.08;90.13
59877;BME280;45749;51.140;17.184;2023-01-31T05:24:48;99871.69;;;2.08;90.66
59877;BME280;45749;51.140;17.184;2023-01-31T05:27:14;99863.91;;;2.08;90.45
59877;BME280;45749;51.140;17.184;2023-01-31T05:29:40;99870.88;;;2.07;90.41
59877;BME280;45749;51.140;17.184;2023-01-31T05:32:05;99876.91;;;2.08;89.91
59877;BME280;45749;51.140;17.184;2023-01-31T05:34:31;99878.59;;;2.09;89.55
59877;BME280;45749;51.140;17.184;2023-01-31T05:36:57;99882.03;;;2.09;88.82
59877;BME280;45749;51.140;17.184;2023-01-31T05:39:23;99886.31;;;2.10;89.48
59877;BME280;45749;51.140;17.184;2023-01-31T05:41:48;99896.69;;;2.12;89.27
59877;BME280;45749;51.140;17.184;2023-01-31T05:44:13;99901.88;;;2.12;88.84
59877;BME280;45749;51.140;17.184;2023-01-31T05:46:40;99910.53;;;2.13;89.49
59877;BME280;45749;51.140;17.184;2023-01-31T05:49:05;99912.22;;;2.14;89.80
59877;BME280;45749;51.140;17.184;2023-01-31T05:51:31;99914.91;;;2.12;89.06
59877;BME280;45749;51.140;17.184;2023-01-31T05:53:56;99916.66;;;2.11;89.65
59877;BME280;45749;51.140;17.184;2023-01-31T05:56:21;99917.50;;;2.12;89.89
59877;BME280;45749;51.140;17.184;2023-01-31T05:58:47;99921.88;;;2.11;89.82
59877;BME280;45749;51.140;17.184;2023-01-31T06:01:15;99930.56;;;2.10;89.58
59877;BME280;45749;51.140;17.184;2023-01-31T06:03:41;99931.44;;;2.11;89.88
59877;BME280;45749;51.140;17.184;2023-01-31T06:06:06;99937.41;;;2.13;89.23
59877;BME280;45749;51.140;17.184;2023-01-31T06:08:31;99928.69;;;2.14;89.06
59877;BME280;45749;51.140;17.184;2023-01-31T06:10:56;99922.63;;;2.14;89.53
59877;BME280;45749;51.140;17.184;2023-01-31T06:13:25;99939.09;;;2.14;89.86
59877;BME280;45749;51.140;17.184;2023-01-31T06:15:50;99942.56;;;2.15;89.42
59877;BME280;45749;51.140;17.184;2023-01-31T06:18:15;99957.34;;;2.14;89.24
59877;BME280;45749;51.140;17.184;2023-01-31T06:20:40;99958.22;;;2.13;88.08
59877;BME280;45749;51.140;17.184;2023-01-31T06:23:06;99965.97;;;2.15;87.60
59877;BME280;45749;51.140;17.184;2023-01-31T06:25:31;99966.81;;;2.15;88.26
59877;BME280;45749;51.140;17.184;2023-01-31T06:27:56;99971.09;;;2.16;88.23
59877;BME280;45749;51.140;17.184;2023-01-31T06:30:21;99973.72;;;2.16;88.00
59877;BME280;45749;51.140;17.184;2023-01-31T06:32:47;99976.31;;;2.16;88.07
59877;BME280;45749;51.140;17.184;2023-01-31T06:35:12;99976.31;;;2.16;87.69
59877;BME280;45749;51.140;17.184;2023-01-31T06:37:37;99975.38;;;2.17;87.61
59877;BME280;45749;51.140;17.184;2023-01-31T06:40:03;99987.53;;;2.18;86.29
59877;BME280;45749;51.140;17.184;2023-01-31T06:42:28;99990.13;;;2.18;86.23
59877;BME280;45749;51.140;17.184;2023-01-31T06:44:53;99983.16;;;2.19;85.72
59877;BME280;45749;51.140;17.184;2023-01-31T06:47:19;99987.38;;;2.21;86.10
59877;BME280;45749;51.140;17.184;2023-01-31T06:49:44;99986.47;;;2.22;86.38
59877;BME280;45749;51.140;17.184;2023-01-31T06:52:09;99989.16;;;2.21;85.65
59877;BME280;45749;51.140;17.184;2023-01-31T06:54:35;99996.97;;;2.21;85.78
59877;BME280;45749;51.140;17.184;2023-01-31T06:57:00;99991.75;;;2.21;86.32
59877;BME280;45749;51.140;17.184;2023-01-31T06:59:25;99996.88;;;2.22;86.56
59877;BME280;45749;51.140;17.184;2023-01-31T07:01:51;99988.22;;;2.22;86.18
59877;BME280;45749;51.140;17.184;2023-01-31T07:04:16;99995.13;;;2.23;86.04
59877;BME280;45749;51.140;17.184;2023-01-31T07:06:41;100001.16;;;2.23;85.50
59877;BME280;45749;51.140;17.184;2023-01-31T07:09:06;100006.31;;;2.25;86.47
59877;BME280;45749;51.140;17.184;2023-01-31T07:11:32;100000.28;;;2.24;86.33
59877;BME280;45749;51.140;17.184;2023-01-31T07:13:57;99998.56;;;2.23;86.74
59877;BME280;45749;51.140;17.184;2023-01-31T07:16:22;100008.09;;;2.24;86.76
59877;BME280;45749;51.140;17.184;2023-01-31T07:18:53;100015.06;;;2.24;86.80
59877;BME280;45749;51.140;17.184;2023-01-31T07:21:18;100011.56;;;2.23;86.64
59877;BME280;45749;51.140;17.184;2023-01-31T07:23:43;100022.00;;;2.23;87.45
59877;BME280;45749;51.140;17.184;2023-01-31T07:26:09;100022.00;;;2.23;87.20
59877;BME280;45749;51.140;17.184;2023-01-31T07:28:35;100025.50;;;2.22;87.21
59877;BME280;45749;51.140;17.184;2023-01-31T07:31:04;100028.97;;;2.23;87.40
59877;BME280;45749;51.140;17.184;2023-01-31T07:33:30;100030.72;;;2.22;87.38
59877;BME280;45749;51.140;17.184;2023-01-31T07:35:55;100031.66;;;2.21;87.27
59877;BME280;45749;51.140;17.184;2023-01-31T07:38:20;100041.22;;;2.21;87.63
59877;BME280;45749;51.140;17.184;2023-01-31T07:40:45;100049.88;;;2.21;87.15
59877;BME280;45749;51.140;17.184;2023-01-31T07:43:10;100058.56;;;2.20;87.56
59877;BME280;45749;51.140;17.184;2023-01-31T07:45:37;100065.50;;;2.21;87.96
59877;BME280;45749;51.140;17.184;2023-01-31T07:48:04;100069.78;;;2.22;87.94
59877;BME280;45749;51.140;17.184;2023-01-31T07:50:30;100071.47;;;2.23;87.76
59877;BME280;45749;51.140;17.184;2023-01-31T07:52:56;100075.78;;;2.24;88.02
59877;BME280;45749;51.140;17.184;2023-01-31T07:55:21;100069.72;;;2.24;87.99
59877;BME280;45749;51.140;17.184;2023-01-31T07:57:47;100075.78;;;2.24;88.13
59877;BME280;45749;51.140;17.184;2023-01-31T08:00:12;100067.03;;;2.25;88.53
59877;BME280;45749;51.140;17.184;2023-01-31T08:03:01;100068.72;;;2.26;88.61
59877;BME280;45749;51.140;17.184;2023-01-31T08:05:45;100072.25;;;2.25;88.17
59877;BME280;45749;51.140;17.184;2023-01-31T08:08:10;100084.34;;;2.26;88.37
59877;BME280;45749;51.140;17.184;2023-01-31T08:10:36;100074.72;;;2.28;88.21
59877;BME280;45749;51.140;17.184;2023-01-31T08:13:01;100077.25;;;2.30;88.12
59877;BME280;45749;51.140;17.184;2023-01-31T08:15:26;100079.84;;;2.30;87.91
59877;BME280;45749;51.140;17.184;2023-01-31T08:17:51;100087.63;;;2.31;88.36
59877;BME280;45749;51.140;17.184;2023-01-31T08:20:17;100073.69;;;2.32;87.81
59877;BME280;45749;51.140;17.184;2023-01-31T08:22:43;100092.69;;;2.34;86.99
59877;BME280;45749;51.140;17.184;2023-01-31T08:25:08;100081.34;;;2.35;85.62
59877;BME280;45749;51.140;17.184;2023-01-31T08:27:35;100083.84;;;2.39;86.27
59877;BME280;45749;51.140;17.184;2023-01-31T08:30:00;100088.00;;;2.43;85.89
59877;BME280;45749;51.140;17.184;2023-01-31T08:32:25;100090.47;;;2.46;85.96
59877;BME280;45749;51.140;17.184;2023-01-31T08:34:51;100082.47;;;2.50;85.95
59877;BME280;45749;51.140;17.184;2023-01-31T08:37:16;100084.09;;;2.53;85.69
59877;BME280;45749;51.140;17.184;2023-01-31T08:39:41;100098.69;;;2.57;85.84
59877;BME280;45749;51.140;17.184;2023-01-31T08:42:08;100092.47;;;2.59;84.39
59877;BME280;45749;51.140;17.184;2023-01-31T08:44:33;100085.53;;;2.60;86.25
59877;BME280;45749;51.140;17.184;2023-01-31T08:46:58;100080.25;;;2.62;86.50
59877;BME280;45749;51.140;17.184;2023-01-31T08:49:26;100080.94;;;2.65;86.65
59877;BME280;45749;51.140;17.184;2023-01-31T08:51:51;100094.69;;;2.69;87.00
59877;BME280;45749;51.140;17.184;2023-01-31T08:54:16;100092.78;;;2.72;86.90
59877;BME280;45749;51.140;17.184;2023-01-31T08:56:41;100088.38;;;2.74;87.05
59877;BME280;45749;51.140;17.184;2023-01-31T08:59:07;100092.66;;;2.75;87.28
59877;BME280;45749;51.140;17.184;2023-01-31T09:01:34;100095.22;;;2.77;87.66
59877;BME280;45749;51.140;17.184;2023-01-31T09:03:59;100106.41;;;2.79;87.62
59877;BME280;45749;51.140;17.184;2023-01-31T09:06:26;100113.31;;;2.80;87.57
59877;BME280;45749;51.140;17.184;2023-01-31T09:08:54;100117.53;;;2.82;87.78
59877;BME280;45749;51.140;17.184;2023-01-31T09:11:20;100115.72;;;2.85;87.81
59877;BME280;45749;51.140;17.184;2023-01-31T09:13:46;100118.19;;;2.88;87.91
59877;BME280;45749;51.140;17.184;2023-01-31T09:16:13;100117.22;;;2.90;87.67
59877;BME280;45749;51.140;17.184;2023-01-31T09:18:39;100122.41;;;2.90;87.88
59877;BME280;45749;51.140;17.184;2023-01-31T09:21:05;100131.78;;;2.94;87.62
59877;BME280;45749;51.140;17.184;2023-01-31T09:23:32;100127.50;;;2.93;86.83
59877;BME280;45749;51.140;17.184;2023-01-31T09:25:57;100128.41;;;2.92;87.04
59877;BME280;45749;51.140;17.184;2023-01-31T09:28:22;100125.78;;;2.92;85.80
59877;BME280;45749;51.140;17.184;2023-01-31T09:30:48;100124.91;;;2.93;87.24
59877;BME280;45749;51.140;17.184;2023-01-31T09:33:14;100127.50;;;2.93;86.50
59877;BME280;45749;51.140;17.184;2023-01-31T09:35:40;100143.06;;;2.95;86.45
59877;BME280;45749;51.140;17.184;2023-01-31T09:38:05;100135.25;;;2.95;86.14
59877;BME280;45749;51.140;17.184;2023-01-31T09:40:32;100143.06;;;2.95;86.66
59877;BME280;45749;51.140;17.184;2023-01-31T09:42:57;100137.78;;;2.96;87.09
59877;BME280;45749;51.140;17.184;2023-01-31T09:45:33;100140.25;;;2.99;86.60
59877;BME280;45749;51.140;17.184;2023-01-31T09:48:00;100134.84;;;3.04;87.31
59877;BME280;45749;51.140;17.184;2023-01-31T09:50:33;100130.25;;;3.09;87.12
59877;BME280;45749;51.140;17.184;2023-01-31T09:53:00;100143.00;;;3.15;87.36
59877;BME280;45749;51.140;17.184;2023-01-31T09:55:28;100127.22;;;3.18;86.70
59877;BME280;45749;51.140;17.184;2023-01-31T09:57:57;100128.06;;;3.19;86.33
59877;BME280;45749;51.140;17.184;2023-01-31T10:00:27;100124.63;;;3.18;86.66
59877;BME280;45749;51.140;17.184;2023-01-31T10:08:17;100119.97;;;3.25;87.30
59877;BME280;45749;51.140;17.184;2023-01-31T10:10:49;100112.72;;;3.32;88.05
59877;BME280;45749;51.140;17.184;2023-01-31T10:13:20;100108.91;;;3.39;88.23
59877;BME280;45749;51.140;17.184;2023-01-31T10:15:49;100124.28;;;3.45;87.35
59877;BME280;45749;51.140;17.184;2023-01-31T10:18:25;100128.50;;;3.47;86.59
59877;BME280;45749;51.140;17.184;2023-01-31T10:20:53;100113.84;;;3.45;87.02
59877;BME280;45749;51.140;17.184;2023-01-31T10:23:31;100113.97;;;3.42;87.73
59877;BME280;45749;51.140;17.184;2023-01-31T10:25:59;100105.25;;;3.43;88.35
59877;BME280;45749;51.140;17.184;2023-01-31T10:31:09;100102.72;;;3.41;88.11
59877;BME280;45749;51.140;17.184;2023-01-31T10:36:13;100103.25;;;3.48;88.79
59877;BME280;45749;51.140;17.184;2023-01-31T10:38:49;100112.63;;;3.52;88.57
59877;BME280;45749;51.140;17.184;2023-01-31T10:41:17;100107.41;;;3.52;88.55
59877;BME280;45749;51.140;17.184;2023-01-31T10:43:46;100112.63;;;3.52;88.73
59877;BME280;45749;51.140;17.184;2023-01-31T10:46:13;100108.47;;;3.48;88.96
59877;BME280;45749;51.140;17.184;2023-01-31T10:48:39;100100.94;;;3.42;89.41
59877;BME280;45749;51.140;17.184;2023-01-31T10:56:34;100096.38;;;3.47;91.09
59877;BME280;45749;51.140;17.184;2023-01-31T10:59:01;100097.91;;;3.51;91.18
59877;BME280;45749;51.140;17.184;2023-01-31T11:01:28;100085.50;;;3.56;91.12
59877;BME280;45749;51.140;17.184;2023-01-31T11:03:54;100095.56;;;3.64;90.68
59877;BME280;45749;51.140;17.184;2023-01-31T11:06:20;100089.22;;;3.69;90.65
59877;BME280;45749;51.140;17.184;2023-01-31T11:08:47;100091.69;;;3.72;90.17
59877;BME280;45749;51.140;17.184;2023-01-31T11:11:17;100088.22;;;3.72;89.69
59877;BME280;45749;51.140;17.184;2023-01-31T11:16:20;100073.41;;;3.72;89.63
59877;BME280;45749;51.140;17.184;2023-01-31T11:18:47;100068.34;;;3.69;90.30
59877;BME280;45749;51.140;17.184;2023-01-31T11:21:21;100069.97;;;3.72;90.73
59877;BME280;45749;51.140;17.184;2023-01-31T11:23:47;100059.44;;;3.73;90.75
59877;BME280;45749;51.140;17.184;2023-01-31T11:26:22;100057.59;;;3.75;90.31
59877;BME280;45749;51.140;17.184;2023-01-31T11:28:49;100055.69;;;3.79;90.30
59877;BME280;45749;51.140;17.184;2023-01-31T11:31:18;100050.38;;;3.81;90.29
59877;BME280;45749;51.140;17.184;2023-01-31T11:33:45;100045.00;;;3.84;90.19
59877;BME280;45749;51.140;17.184;2023-01-31T11:36:19;100041.56;;;3.83;90.06
59877;BME280;45749;51.140;17.184;2023-01-31T11:38:47;100039.78;;;3.84;90.45
59877;BME280;45749;51.140;17.184;2023-01-31T11:41:29;100031.19;;;3.82;90.51
59877;BME280;45749;51.140;17.184;2023-01-31T11:44:14;100033.78;;;3.82;90.55
59877;BME280;45749;51.140;17.184;2023-01-31T11:46:55;100028.56;;;3.82;90.66
59877;BME280;45749;51.140;17.184;2023-01-31T11:49:23;100023.28;;;3.83;90.72
59877;BME280;45749;51.140;17.184;2023-01-31T11:51:51;100028.38;;;3.86;90.53
59877;BME280;45749;51.140;17.184;2023-01-31T11:54:18;100009.84;;;3.91;90.93
59877;BME280;45749;51.140;17.184;2023-01-31T11:56:45;100014.06;;;3.93;89.92
59877;BME280;45749;51.140;17.184;2023-01-31T11:59:12;100000.97;;;3.95;90.01
59877;BME280;45749;51.140;17.184;2023-01-31T12:01:44;100004.31;;;3.97;90.09
59877;BME280;45749;51.140;17.184;2023-01-31T12:04:13;99994.72;;;3.97;89.78
59877;BME280;45749;51.140;17.184;2023-01-31T12:06:40;100005.09;;;3.99;89.40
59877;BME280;45749;51.140;17.184;2023-01-31T12:09:18;99990.28;;;3.99;89.57
59877;BME280;45749;51.140;17.184;2023-01-31T12:11:51;99997.28;;;3.99;89.94
59877;BME280;45749;51.140;17.184;2023-01-31T12:14:17;99980.81;;;3.97;90.03
59877;BME280;45749;51.140;17.184;2023-01-31T12:16:43;100000.19;;;3.93;90.42
59877;BME280;45749;51.140;17.184;2023-01-31T12:21:48;99977.94;;;3.86;91.23
59877;BME280;45749;51.140;17.184;2023-01-31T12:24:29;99989.25;;;3.85;91.62
59877;BME280;45749;51.140;17.184;2023-01-31T12:30:01;99985.38;;;3.76;92.51
59877;BME280;45749;51.140;17.184;2023-01-31T12:35:12;99985.19;;;3.62;93.24
59877;BME280;45749;51.140;17.184;2023-01-31T12:50:18;99955.59;;;3.63;94.71
59877;BME280;45749;51.140;17.184;2023-01-31T12:57:59;99942.41;;;3.66;94.23
59877;BME280;45749;51.140;17.184;2023-01-31T13:00:43;99951.06;;;3.66;93.98
59877;BME280;45749;51.140;17.184;2023-01-31T13:05:44;99937.84;;;3.69;93.86
59877;BME280;45749;51.140;17.184;2023-01-31T13:08:16;99933.38;;;3.71;93.84
59877;BME280;45749;51.140;17.184;2023-01-31T13:10:44;99924.66;;;3.72;93.86
59877;BME280;45749;51.140;17.184;2023-01-31T13:13:14;99925.41;;;3.74;93.55
59877;BME280;45749;51.140;17.184;2023-01-31T13:15:51;99926.19;;;3.76;93.80
59877;BME280;45749;51.140;17.184;2023-01-31T13:18:18;99924.41;;;3.77;94.18
59877;BME280;45749;51.140;17.184;2023-01-31T13:20:55;99920.97;;;3.76;94.07
59877;BME280;45749;51.140;17.184;2023-01-31T13:23:57;99923.72;;;3.73;94.31
59877;BME280;45749;51.140;17.184;2023-01-31T13:29:05;99909.31;;;3.66;94.65
59877;BME280;45749;51.140;17.184;2023-01-31T13:34:11;99905.19;;;3.62;95.00
59877;BME280;45749;51.140;17.184;2023-01-31T13:39:06;99903.31;;;3.64;94.90
59877;BME280;45749;51.140;17.184;2023-01-31T13:41:33;99900.69;;;3.64;94.92
59877;BME280;45749;51.140;17.184;2023-01-31T13:43:59;99893.72;;;3.65;94.81
59877;BME280;45749;51.140;17.184;2023-01-31T13:48:56;99891.03;;;3.66;94.48
59877;BME280;45749;51.140;17.184;2023-01-31T13:51:43;99882.38;;;3.66;94.66
59877;BME280;45749;51.140;17.184;2023-01-31T13:54:15;99878.06;;;3.65;94.43
59877;BME280;45749;51.140;17.184;2023-01-31T13:56:44;99884.22;;;3.64;94.36
59877;BME280;45749;51.140;17.184;2023-01-31T13:59:16;99880.66;;;3.65;94.23
59877;BME280;45749;51.140;17.184;2023-01-31T14:01:47;99891.97;;;3.65;94.24
59877;BME280;45749;51.140;17.184;2023-01-31T14:11:52;99879.09;;;3.62;94.17
59877;BME280;45749;51.140;17.184;2023-01-31T14:14:35;99876.47;;;3.62;94.41
59877;BME280;45749;51.140;17.184;2023-01-31T14:17:11;99868.66;;;3.62;94.44
59877;BME280;45749;51.140;17.184;2023-01-31T14:22:16;99857.28;;;3.63;94.37
59877;BME280;45749;51.140;17.184;2023-01-31T14:32:32;99860.13;;;3.59;94.51
59877;BME280;45749;51.140;17.184;2023-01-31T14:34:59;99854.19;;;3.55;94.60
59877;BME280;45749;51.140;17.184;2023-01-31T14:55:19;99824.84;;;3.34;95.59
59877;BME280;45749;51.140;17.184;2023-01-31T14:57:47;99827.56;;;3.33;95.65
59877;BME280;45749;51.140;17.184;2023-01-31T15:07:36;99824.22;;;3.29;96.22
59877;BME280;45749;51.140;17.184;2023-01-31T15:13:26;99826.16;;;3.25;96.31
59877;BME280;45749;51.140;17.184;2023-01-31T15:15:50;99817.56;;;3.23;96.51
59877;BME280;45749;51.140;17.184;2023-01-31T15:18:17;99826.28;;;3.22;96.68
59877;BME280;45749;51.140;17.184;2023-01-31T15:20:44;99824.63;;;3.21;96.73
59877;BME280;45749;51.140;17.184;2023-01-31T15:23:18;99823.78;;;3.21;96.67